YPEA

RAAF Base Pearce Airport

Bullsbrook, Australia
TAF AMD YPEA 211611Z 2116/2212 05003KT CAVOK FM220100 05003KT CAVOK PROB30 2116/2201 0300 FG
Issued Valid From Valid To
Jun-21 @ 16:11 UTC
(2 hours ago)
Jun-21 @ 16:00 UTC
(2 hours ago)
Jun-22 @ 12:00 UTC
(in 18 hours)
Jun-21 @ 16:00 to Jun-22 @ 01:00
TAF AMD YPEA 211611Z 2116/2212 05003KT CAVOK
Wind Visibility Clouds Conditions
50° at 3 knots 10,000+ meters
  • No significant clouds
Probable  (Probability 30%) Jun-21 @ 16:00 to Jun-22 @ 01:00
PROB30 2116/2201 0300 FG
Visibility Conditions
306 meters
  • Fog
From Jun-22 @ 01:00 to Jun-22 @ 12:00
FM220100 05003KT CAVOK
Wind Visibility Clouds Conditions
50° at 3 knots 10,000+ meters
  • No significant clouds
TAF AMD YPEA 211611Z 2116/2212 05003KT CAVOK FM220100 05003KT CAVOK PROB30 2116/2201 0300 FG
Issued Jun-21 @ 16:11 UTC
(2 hours ago)
Valid From Jun-21 @ 16:00 UTC
(2 hours ago)
Valid To Jun-22 @ 12:00 UTC
(in 18 hours)
Jun-21 @ 16:00 - Jun-22 @ 01:00
Wind Visibility
50° at 3 knots 10,000+ meters
Clouds
  • No significant clouds
Conditions
Probability 30% Probable Jun-21 @ 16:00 - Jun-22 @ 01:00
Conditions
  • Fog
From Jun-22 @ 01:00 - Jun-22 @ 12:00
Wind Visibility
50° at 3 knots 10,000+ meters
Clouds
  • No significant clouds
Conditions